PWSweather.com
Personal Weather Stations
Station Observations
BREAKEY01
Lévis, Breakeyville, QC G6z 7G7

LévisBreakeyville, QC G6z 7G7

Lat: 46.681, Lon: -71.224

Elevation: 328

Station Type: Davis Vantage Pro2

http://www.meteobreakey.com

Latest ConditionsUpdated 9:02:03 PM EST Saturday, Dec 10, 2016
Currently Today's Max Today's Min Today's Average
Temperature 16.5°F-8.6°C 18.3°F-7.6°C 9.0°F-12.8°C 14.0°F-10.0°C
Dew Point 11.5°F-11.4°C 11.7°F-11.3°C 3.2°F-16.0°C 6.9°F-13.9°C
Winds 0.9 mph WSW1.4 kmh WSW 10.1 mph N16.3 kmh N - 4.8 mph 7.7 kmh
Wind Gusts 2.0 mph3.2 kmh 15.0 mph24.1 kmh - -
Humidity 80% 84% 63% 73%
Pressure 30.34 in1027.4 mb 30.34 in1027.4 mb 30.13 in1020.3 mb -
Hour Temp Dew Point Humidity Winds Wind Gusts Pressure Precip Precip Rate Daily Precip Total
09:02 PM 16.5°F-8.6°C 11.5°F-11.4°C 80% 0.9 mph WSW1.4 kmh WSW 2.0 mph3.2 kmh 30.34 in1027.4 mb - 0.00 in0.0 mm 0.00 in0.0 mm
08:57 PM 16.7°F-8.5°C 11.7°F-11.3°C 80% 0.9 mph WSW1.4 kmh WSW 0.9 mph1.4 kmh 30.34 in1027.4 mb - 0.00 in0.0 mm 0.00 in0.0 mm
08:52 PM 16.5°F-8.6°C 11.5°F-11.4°C 80% 2.9 mph WSW4.7 kmh WSW 0.9 mph1.4 kmh 30.34 in1027.4 mb - 0.00 in0.0 mm 0.00 in0.0 mm
08:47 PM 16.5°F-8.6°C 11.5°F-11.4°C 80% 4.0 mph WSW6.4 kmh WSW 2.9 mph4.7 kmh 30.34 in1027.4 mb - 0.00 in0.0 mm 0.00 in0.0 mm
08:42 PM 16.5°F-8.6°C 11.5°F-11.4°C 80% 2.9 mph WSW4.7 kmh WSW 8.1 mph13.0 kmh 30.34 in1027.4 mb - 0.00 in0.0 mm 0.00 in0.0 mm
08:37 PM 16.5°F-8.6°C 11.1°F-11.6°C 79% 2.9 mph WSW4.7 kmh WSW -- 30.34 in1027.4 mb - 0.00 in0.0 mm 0.00 in0.0 mm
08:32 PM 16.5°F-8.6°C 11.5°F-11.4°C 80% 2.0 mph WSW3.2 kmh WSW 2.9 mph4.7 kmh 30.34 in1027.4 mb - 0.00 in0.0 mm 0.00 in0.0 mm
08:27 PM 16.3°F-8.7°C 11.3°F-11.5°C 80% 2.0 mph WSW3.2 kmh WSW 2.0 mph3.2 kmh 30.34 in1027.4 mb - 0.00 in0.0 mm 0.00 in0.0 mm
08:22 PM 16.3°F-8.7°C 11.3°F-11.5°C 80% 2.9 mph WSW4.7 kmh WSW 2.0 mph3.2 kmh 30.33 in1027.1 mb - 0.00 in0.0 mm 0.00 in0.0 mm
08:17 PM 16.2°F-8.8°C 11.3°F-11.5°C 81% 2.9 mph WSW4.7 kmh WSW 4.0 mph6.4 kmh 30.34 in1027.4 mb - 0.00 in0.0 mm 0.00 in0.0 mm
08:12 PM 16.0°F-8.9°C 11.5°F-11.4°C 82% 2.9 mph WSW4.7 kmh WSW 4.9 mph7.9 kmh 30.34 in1027.4 mb - 0.00 in0.0 mm 0.00 in0.0 mm
08:07 PM 15.4°F-9.2°C 11.1°F-11.6°C 83% 2.9 mph WSW4.7 kmh WSW 2.0 mph3.2 kmh 30.34 in1027.4 mb - 0.00 in0.0 mm 0.00 in0.0 mm
08:02 PM 15.1°F-9.4°C 11.1°F-11.6°C 84% 2.0 mph WSW3.2 kmh WSW 2.0 mph3.2 kmh 30.34 in1027.4 mb - 0.00 in0.0 mm 0.00 in0.0 mm
07:57 PM 14.5°F-9.7°C 10.6°F-11.9°C 84% 0.9 mph WSW1.4 kmh WSW 2.0 mph3.2 kmh 30.34 in1027.4 mb - 0.00 in0.0 mm 0.00 in0.0 mm
07:52 PM 14.2°F-9.9°C 10.2°F-12.1°C 84% 0.9 mph WSW1.4 kmh WSW 0.9 mph1.4 kmh 30.34 in1027.4 mb - 0.00 in0.0 mm 0.00 in0.0 mm
07:47 PM 13.8°F-10.1°C 9.9°F-12.3°C 84% Calm Calm 0.9 mph1.4 kmh 30.34 in1027.4 mb - 0.00 in0.0 mm 0.00 in0.0 mm
07:42 PM 13.8°F-10.1°C 9.7°F-12.4°C 83% Calm Calm -- 30.34 in1027.4 mb - 0.00 in0.0 mm 0.00 in0.0 mm
07:37 PM 13.8°F-10.1°C 9.7°F-12.4°C 83% Calm Calm -- 30.34 in1027.4 mb - 0.00 in0.0 mm 0.00 in0.0 mm
07:32 PM 13.6°F-10.2°C 9.5°F-12.5°C 83% Calm Calm -- 30.34 in1027.4 mb - 0.00 in0.0 mm 0.00 in0.0 mm
07:27 PM 13.6°F-10.2°C 9.5°F-12.5°C 83% Calm Calm -- 30.34 in1027.4 mb - 0.00 in0.0 mm 0.00 in0.0 mm
07:22 PM 13.5°F-10.3°C 9.3°F-12.6°C 83% Calm Calm -- 30.34 in1027.4 mb - 0.00 in0.0 mm 0.00 in0.0 mm
07:17 PM 13.5°F-10.3°C 9.0°F-12.8°C 82% Calm Calm -- 30.34 in1027.4 mb - 0.00 in0.0 mm 0.00 in0.0 mm
07:12 PM 13.5°F-10.3°C 9.0°F-12.8°C 82% Calm Calm -- 30.34 in1027.4 mb - 0.00 in0.0 mm 0.00 in0.0 mm
07:07 PM 13.6°F-10.2°C 9.0°F-12.8°C 81% 0.9 mph WSW1.4 kmh WSW -- 30.33 in1027.1 mb - 0.00 in0.0 mm 0.00 in0.0 mm
07:02 PM 13.8°F-10.1°C 8.8°F-12.9°C 80% 0.9 mph WSW1.4 kmh WSW 2.0 mph3.2 kmh 30.33 in1027.1 mb - 0.00 in0.0 mm 0.00 in0.0 mm
06:57 PM 14.2°F-9.9°C 9.0°F-12.8°C 79% Calm Calm 2.0 mph3.2 kmh 30.33 in1027.1 mb - 0.00 in0.0 mm 0.00 in0.0 mm
06:52 PM 14.5°F-9.7°C 9.0°F-12.8°C 78% Calm Calm -- 30.33 in1027.1 mb - 0.00 in0.0 mm 0.00 in0.0 mm
06:47 PM 14.7°F-9.6°C 9.1°F-12.7°C 78% Calm Calm -- 30.33 in1027.1 mb - 0.00 in0.0 mm 0.00 in0.0 mm
06:42 PM 15.1°F-9.4°C 9.5°F-12.5°C 78% 0.9 mph WSW1.4 kmh WSW -- 30.33 in1027.1 mb - 0.00 in0.0 mm 0.00 in0.0 mm
06:37 PM 15.3°F-9.3°C 9.7°F-12.4°C 78% 0.9 mph WSW1.4 kmh WSW -- 30.33 in1027.1 mb - 0.00 in0.0 mm 0.00 in0.0 mm
06:32 PM 15.3°F-9.3°C 9.7°F-12.4°C 78% 0.9 mph WSW1.4 kmh WSW -- 30.33 in1027.1 mb - 0.00 in0.0 mm 0.00 in0.0 mm
06:27 PM 15.3°F-9.3°C 9.7°F-12.4°C 78% 2.0 mph WSW3.2 kmh WSW 2.9 mph4.7 kmh 30.33 in1027.1 mb - 0.00 in0.0 mm 0.00 in0.0 mm
06:22 PM 15.3°F-9.3°C 9.7°F-12.4°C 78% 2.0 mph WSW3.2 kmh WSW 0.9 mph1.4 kmh 30.33 in1027.1 mb - 0.00 in0.0 mm 0.00 in0.0 mm
06:17 PM 15.3°F-9.3°C 9.3°F-12.6°C 77% 2.0 mph WSW3.2 kmh WSW 2.0 mph3.2 kmh 30.33 in1027.1 mb - 0.00 in0.0 mm 0.00 in0.0 mm
06:12 PM 15.3°F-9.3°C 9.3°F-12.6°C 77% 2.0 mph WSW3.2 kmh WSW 0.9 mph1.4 kmh 30.33 in1027.1 mb - 0.00 in0.0 mm 0.00 in0.0 mm
06:07 PM 15.4°F-9.2°C 9.3°F-12.6°C 76% 2.9 mph WSW4.7 kmh WSW 0.9 mph1.4 kmh 30.32 in1026.8 mb - 0.00 in0.0 mm 0.00 in0.0 mm
06:02 PM 15.6°F-9.1°C 9.5°F-12.5°C 76% 4.0 mph WSW6.4 kmh WSW 2.9 mph4.7 kmh 30.32 in1026.8 mb - 0.00 in0.0 mm 0.00 in0.0 mm
05:57 PM 15.6°F-9.1°C 9.5°F-12.5°C 76% 2.9 mph WSW4.7 kmh WSW 2.0 mph3.2 kmh 30.32 in1026.8 mb - 0.00 in0.0 mm 0.00 in0.0 mm
05:52 PM 16.0°F-8.9°C 9.7°F-12.4°C 76% 2.9 mph WSW4.7 kmh WSW 2.9 mph4.7 kmh 30.32 in1026.8 mb - 0.00 in0.0 mm 0.00 in0.0 mm
05:47 PM 16.0°F-8.9°C 9.5°F-12.5°C 75% 2.9 mph WSW4.7 kmh WSW 2.0 mph3.2 kmh 30.32 in1026.8 mb - 0.00 in0.0 mm 0.00 in0.0 mm
05:42 PM 16.2°F-8.8°C 9.7°F-12.4°C 75% 2.9 mph WSW4.7 kmh WSW 4.0 mph6.4 kmh 30.32 in1026.8 mb - 0.00 in0.0 mm 0.00 in0.0 mm
05:37 PM 16.2°F-8.8°C 9.7°F-12.4°C 75% 2.9 mph WSW4.7 kmh WSW 2.0 mph3.2 kmh 30.32 in1026.8 mb - 0.00 in0.0 mm 0.00 in0.0 mm
05:32 PM 16.3°F-8.7°C 9.9°F-12.3°C 75% 2.9 mph WSW4.7 kmh WSW 2.0 mph3.2 kmh 30.32 in1026.8 mb - 0.00 in0.0 mm 0.00 in0.0 mm
05:27 PM 16.3°F-8.7°C 9.9°F-12.3°C 75% 2.9 mph WSW4.7 kmh WSW 4.0 mph6.4 kmh 30.31 in1026.4 mb - 0.00 in0.0 mm 0.00 in0.0 mm
05:22 PM 16.3°F-8.7°C 9.5°F-12.5°C 74% 2.0 mph W3.2 kmh W 2.0 mph3.2 kmh 30.32 in1026.8 mb - 0.00 in0.0 mm 0.00 in0.0 mm
05:17 PM 16.3°F-8.7°C 9.5°F-12.5°C 74% 2.0 mph W3.2 kmh W 6.9 mph11.1 kmh 30.31 in1026.4 mb - 0.00 in0.0 mm 0.00 in0.0 mm
05:12 PM 16.5°F-8.6°C 9.7°F-12.4°C 74% 2.0 mph W3.2 kmh W 2.9 mph4.7 kmh 30.31 in1026.4 mb - 0.00 in0.0 mm 0.00 in0.0 mm
05:07 PM 16.5°F-8.6°C 9.7°F-12.4°C 74% 2.0 mph W3.2 kmh W 0.9 mph1.4 kmh 30.31 in1026.4 mb - 0.00 in0.0 mm 0.00 in0.0 mm
05:02 PM 16.5°F-8.6°C 9.3°F-12.6°C 73% 2.0 mph W3.2 kmh W 2.9 mph4.7 kmh 30.31 in1026.4 mb - 0.00 in0.0 mm 0.00 in0.0 mm
04:57 PM 16.5°F-8.6°C 9.3°F-12.6°C 73% 2.0 mph W3.2 kmh W 4.0 mph6.4 kmh 30.31 in1026.4 mb - 0.00 in0.0 mm 0.00 in0.0 mm
04:52 PM 16.5°F-8.6°C 9.3°F-12.6°C 73% 0.9 mph W1.4 kmh W 0.9 mph1.4 kmh 30.31 in1026.4 mb - 0.00 in0.0 mm 0.00 in0.0 mm
04:47 PM 16.5°F-8.6°C 9.3°F-12.6°C 73% 2.0 mph W3.2 kmh W 0.9 mph1.4 kmh 30.31 in1026.4 mb - 0.00 in0.0 mm 0.00 in0.0 mm
04:42 PM 16.5°F-8.6°C 9.1°F-12.7°C 72% 2.0 mph W3.2 kmh W 0.9 mph1.4 kmh 30.31 in1026.4 mb - 0.00 in0.0 mm 0.00 in0.0 mm
04:37 PM 16.5°F-8.6°C 9.1°F-12.7°C 72% 2.0 mph W3.2 kmh W 0.9 mph1.4 kmh 30.31 in1026.4 mb - 0.00 in0.0 mm 0.00 in0.0 mm
04:32 PM 16.5°F-8.6°C 9.1°F-12.7°C 72% 2.0 mph WNW3.2 kmh WNW 2.9 mph4.7 kmh 30.31 in1026.4 mb - 0.00 in0.0 mm 0.00 in0.0 mm
04:27 PM 16.7°F-8.5°C 9.0°F-12.8°C 71% 2.0 mph WNW3.2 kmh WNW 2.0 mph3.2 kmh 30.30 in1026.1 mb - 0.00 in0.0 mm 0.00 in0.0 mm
04:22 PM 16.9°F-8.4°C 9.1°F-12.7°C 71% 2.0 mph WNW3.2 kmh WNW 2.0 mph3.2 kmh 30.30 in1026.1 mb - 0.00 in0.0 mm 0.00 in0.0 mm
04:17 PM 16.9°F-8.4°C 9.1°F-12.7°C 71% 2.0 mph WNW3.2 kmh WNW 0.9 mph1.4 kmh 30.30 in1026.1 mb - 0.00 in0.0 mm 0.00 in0.0 mm
04:12 PM 17.1°F-8.3°C 9.3°F-12.6°C 71% 2.0 mph WNW3.2 kmh WNW 2.0 mph3.2 kmh 30.30 in1026.1 mb - 0.00 in0.0 mm 0.00 in0.0 mm
04:07 PM 17.1°F-8.3°C 9.3°F-12.6°C 71% 2.0 mph WNW3.2 kmh WNW 2.9 mph4.7 kmh 30.30 in1026.1 mb - 0.00 in0.0 mm 0.00 in0.0 mm
04:02 PM 17.2°F-8.2°C 9.5°F-12.5°C 71% 2.0 mph WNW3.2 kmh WNW 2.9 mph4.7 kmh 30.30 in1026.1 mb - 0.00 in0.0 mm 0.00 in0.0 mm
03:57 PM 17.4°F-8.1°C 9.3°F-12.6°C 70% 2.9 mph WNW4.7 kmh WNW 2.0 mph3.2 kmh 30.30 in1026.1 mb - 0.00 in0.0 mm 0.00 in0.0 mm
03:52 PM 17.6°F-8.0°C 9.5°F-12.5°C 70% 2.9 mph NW4.7 kmh NW 4.0 mph6.4 kmh 30.30 in1026.1 mb - 0.00 in0.0 mm 0.00 in0.0 mm
03:47 PM 17.8°F-7.9°C 9.7°F-12.4°C 70% 4.0 mph WNW6.4 kmh WNW 6.9 mph11.1 kmh 30.30 in1026.1 mb - 0.00 in0.0 mm 0.00 in0.0 mm
03:42 PM 17.8°F-7.9°C 9.7°F-12.4°C 70% 4.0 mph W6.4 kmh W 4.0 mph6.4 kmh 30.30 in1026.1 mb - 0.00 in0.0 mm 0.00 in0.0 mm
03:37 PM 18.0°F-7.8°C 9.9°F-12.3°C 70% 2.9 mph NW4.7 kmh NW 6.0 mph9.7 kmh 30.30 in1026.1 mb - 0.00 in0.0 mm 0.00 in0.0 mm
03:32 PM 18.1°F-7.7°C 10.0°F-12.2°C 70% 2.9 mph WNW4.7 kmh WNW 4.0 mph6.4 kmh 30.30 in1026.1 mb - 0.00 in0.0 mm 0.00 in0.0 mm
03:27 PM 18.1°F-7.7°C 9.7°F-12.4°C 69% 4.0 mph WNW6.4 kmh WNW 2.0 mph3.2 kmh 30.29 in1025.7 mb - 0.00 in0.0 mm 0.00 in0.0 mm
03:22 PM 18.1°F-7.7°C 9.7°F-12.4°C 69% 4.0 mph W6.4 kmh W 4.0 mph6.4 kmh 30.29 in1025.7 mb - 0.00 in0.0 mm 0.00 in0.0 mm
03:17 PM 18.3°F-7.6°C 9.5°F-12.5°C 68% 4.0 mph W6.4 kmh W 0.9 mph1.4 kmh 30.30 in1026.1 mb - 0.00 in0.0 mm 0.00 in0.0 mm
03:12 PM 18.3°F-7.6°C 9.9°F-12.3°C 69% 4.0 mph NW6.4 kmh NW 11.0 mph17.7 kmh 30.29 in1025.7 mb - 0.00 in0.0 mm 0.00 in0.0 mm
03:07 PM 18.3°F-7.6°C 9.9°F-12.3°C 69% 4.9 mph NW7.9 kmh NW 6.9 mph11.1 kmh 30.29 in1025.7 mb - 0.00 in0.0 mm 0.00 in0.0 mm
03:02 PM 18.3°F-7.6°C 9.5°F-12.5°C 68% 4.9 mph NW7.9 kmh NW 4.0 mph6.4 kmh 30.29 in1025.7 mb - 0.00 in0.0 mm 0.00 in0.0 mm
02:57 PM 18.3°F-7.6°C 9.5°F-12.5°C 68% 4.0 mph W6.4 kmh W 2.0 mph3.2 kmh 30.29 in1025.7 mb - 0.00 in0.0 mm 0.00 in0.0 mm
02:52 PM 18.3°F-7.6°C 9.5°F-12.5°C 68% 6.0 mph NW9.7 kmh NW 8.1 mph13.0 kmh 30.29 in1025.7 mb - 0.00 in0.0 mm 0.00 in0.0 mm
02:47 PM 18.1°F-7.7°C 9.0°F-12.8°C 67% 8.1 mph NW13.0 kmh NW 6.9 mph11.1 kmh 30.29 in1025.7 mb - 0.00 in0.0 mm 0.00 in0.0 mm
02:42 PM 18.1°F-7.7°C 9.0°F-12.8°C 67% 8.1 mph WNW13.0 kmh WNW 8.1 mph13.0 kmh 30.29 in1025.7 mb - 0.00 in0.0 mm 0.00 in0.0 mm
02:37 PM 18.1°F-7.7°C 9.0°F-12.8°C 67% 8.1 mph NW13.0 kmh NW 6.9 mph11.1 kmh 30.29 in1025.7 mb - 0.00 in0.0 mm 0.00 in0.0 mm
02:32 PM 18.0°F-7.8°C 8.8°F-12.9°C 67% 8.1 mph WNW13.0 kmh WNW 8.9 mph14.3 kmh 30.28 in1025.4 mb - 0.00 in0.0 mm 0.00 in0.0 mm
02:27 PM 18.0°F-7.8°C 8.8°F-12.9°C 67% 6.9 mph NW11.1 kmh NW 4.0 mph6.4 kmh 30.28 in1025.4 mb - 0.00 in0.0 mm 0.00 in0.0 mm
02:22 PM 18.0°F-7.8°C 8.8°F-12.9°C 67% 6.0 mph W9.7 kmh W 6.9 mph11.1 kmh 30.28 in1025.4 mb - 0.00 in0.0 mm 0.00 in0.0 mm
02:17 PM 18.0°F-7.8°C 8.8°F-12.9°C 67% 8.1 mph W13.0 kmh W 8.1 mph13.0 kmh 30.28 in1025.4 mb - 0.00 in0.0 mm 0.00 in0.0 mm
02:12 PM 18.0°F-7.8°C 8.6°F-13.0°C 66% 8.1 mph WNW13.0 kmh WNW 2.0 mph3.2 kmh 30.28 in1025.4 mb - 0.00 in0.0 mm 0.00 in0.0 mm
02:07 PM 18.0°F-7.8°C 8.6°F-13.0°C 66% 8.1 mph WNW13.0 kmh WNW 4.9 mph7.9 kmh 30.27 in1025.1 mb - 0.00 in0.0 mm 0.00 in0.0 mm
02:02 PM 18.0°F-7.8°C 8.6°F-13.0°C 66% 8.1 mph W13.0 kmh W 8.9 mph14.3 kmh 30.27 in1025.1 mb - 0.00 in0.0 mm 0.00 in0.0 mm
01:57 PM 17.8°F-7.9°C 8.4°F-13.1°C 66% 8.1 mph W13.0 kmh W 11.0 mph17.7 kmh 30.27 in1025.1 mb - 0.00 in0.0 mm 0.00 in0.0 mm
01:52 PM 17.8°F-7.9°C 8.6°F-13.0°C 67% 8.1 mph NW13.0 kmh NW 12.1 mph19.5 kmh 30.27 in1025.1 mb - 0.00 in0.0 mm 0.00 in0.0 mm
01:47 PM 17.8°F-7.9°C 8.4°F-13.1°C 66% 8.9 mph WNW14.3 kmh WNW 6.9 mph11.1 kmh 30.27 in1025.1 mb - 0.00 in0.0 mm 0.00 in0.0 mm
01:42 PM 17.8°F-7.9°C 8.4°F-13.1°C 66% 8.9 mph NW14.3 kmh NW 11.0 mph17.7 kmh 30.27 in1025.1 mb - 0.00 in0.0 mm 0.00 in0.0 mm
01:37 PM 18.0°F-7.8°C 8.6°F-13.0°C 66% 6.9 mph W11.1 kmh W 6.9 mph11.1 kmh 30.27 in1025.1 mb - 0.00 in0.0 mm 0.00 in0.0 mm
01:32 PM 18.0°F-7.8°C 8.6°F-13.0°C 66% 8.1 mph W13.0 kmh W 11.0 mph17.7 kmh 30.26 in1024.7 mb - 0.00 in0.0 mm 0.00 in0.0 mm
01:27 PM 18.0°F-7.8°C 8.6°F-13.0°C 66% 6.9 mph NW11.1 kmh NW 6.9 mph11.1 kmh 30.26 in1024.7 mb - 0.00 in0.0 mm 0.00 in0.0 mm
01:22 PM 18.1°F-7.7°C 9.0°F-12.8°C 67% 6.0 mph NW9.7 kmh NW 8.9 mph14.3 kmh 30.26 in1024.7 mb - 0.00 in0.0 mm 0.00 in0.0 mm
01:17 PM 18.1°F-7.7°C 9.0°F-12.8°C 67% 6.0 mph WNW9.7 kmh WNW 8.9 mph14.3 kmh 30.26 in1024.7 mb - 0.00 in0.0 mm 0.00 in0.0 mm
01:12 PM 18.1°F-7.7°C 9.0°F-12.8°C 67% 6.9 mph NW11.1 kmh NW 4.9 mph7.9 kmh 30.25 in1024.4 mb - 0.00 in0.0 mm 0.00 in0.0 mm
01:07 PM 18.1°F-7.7°C 8.8°F-12.9°C 66% 6.9 mph W11.1 kmh W 10.1 mph16.3 kmh 30.26 in1024.7 mb - 0.00 in0.0 mm 0.00 in0.0 mm
01:02 PM 18.3°F-7.6°C 9.0°F-12.8°C 66% 6.0 mph NW9.7 kmh NW 6.9 mph11.1 kmh 30.26 in1024.7 mb - 0.00 in0.0 mm 0.00 in0.0 mm
12:57 PM 18.1°F-7.7°C 8.8°F-12.9°C 66% 6.0 mph NW9.7 kmh NW 2.0 mph3.2 kmh 30.25 in1024.4 mb - 0.00 in0.0 mm 0.00 in0.0 mm
12:52 PM 18.1°F-7.7°C 8.8°F-12.9°C 66% 4.9 mph NW7.9 kmh NW 4.0 mph6.4 kmh 30.25 in1024.4 mb - 0.00 in0.0 mm 0.00 in0.0 mm
12:47 PM 18.0°F-7.8°C 8.2°F-13.2°C 65% 6.0 mph NW9.7 kmh NW 6.9 mph11.1 kmh 30.25 in1024.4 mb - 0.00 in0.0 mm 0.00 in0.0 mm
12:42 PM 18.0°F-7.8°C 7.9°F-13.4°C 64% 8.1 mph NW13.0 kmh NW 0.9 mph1.4 kmh 30.25 in1024.4 mb - 0.00 in0.0 mm 0.00 in0.0 mm
12:37 PM 18.0°F-7.8°C 7.9°F-13.4°C 64% 10.1 mph NNW16.3 kmh NNW 12.1 mph19.5 kmh 30.25 in1024.4 mb - 0.00 in0.0 mm 0.00 in0.0 mm
12:32 PM 18.0°F-7.8°C 7.9°F-13.4°C 64% 10.1 mph NNW16.3 kmh NNW 11.0 mph17.7 kmh 30.25 in1024.4 mb - 0.00 in0.0 mm 0.00 in0.0 mm
12:27 PM 18.0°F-7.8°C 7.5°F-13.6°C 63% 8.9 mph NNW14.3 kmh NNW 4.9 mph7.9 kmh 30.25 in1024.4 mb - 0.00 in0.0 mm 0.00 in0.0 mm
12:22 PM 18.0°F-7.8°C 7.5°F-13.6°C 63% 10.1 mph NW16.3 kmh NW 15.0 mph24.1 kmh 30.25 in1024.4 mb - 0.00 in0.0 mm 0.00 in0.0 mm
12:17 PM 18.0°F-7.8°C 7.9°F-13.4°C 64% 8.9 mph NW14.3 kmh NW 11.0 mph17.7 kmh 30.25 in1024.4 mb - 0.00 in0.0 mm 0.00 in0.0 mm
12:12 PM 18.0°F-7.8°C 7.5°F-13.6°C 63% 8.1 mph W13.0 kmh W 10.1 mph16.3 kmh 30.25 in1024.4 mb - 0.00 in0.0 mm 0.00 in0.0 mm
12:07 PM 18.0°F-7.8°C 7.9°F-13.4°C 64% 8.1 mph W13.0 kmh W 8.9 mph14.3 kmh 30.26 in1024.7 mb - 0.00 in0.0 mm 0.00 in0.0 mm
12:02 PM 17.8°F-7.9°C 8.1°F-13.3°C 65% 8.1 mph NW13.0 kmh NW 6.0 mph9.7 kmh 30.26 in1024.7 mb - 0.00 in0.0 mm 0.00 in0.0 mm
11:57 AM 17.8°F-7.9°C 8.1°F-13.3°C 65% 8.9 mph NNW14.3 kmh NNW 10.1 mph16.3 kmh 30.26 in1024.7 mb - 0.00 in0.0 mm 0.00 in0.0 mm
11:52 AM 17.4°F-8.1°C 7.7°F-13.5°C 65% 10.1 mph NW16.3 kmh NW 4.9 mph7.9 kmh 30.26 in1024.7 mb - 0.00 in0.0 mm 0.00 in0.0 mm
11:47 AM 17.2°F-8.2°C 7.9°F-13.4°C 66% 8.9 mph NW14.3 kmh NW 8.1 mph13.0 kmh 30.26 in1024.7 mb - 0.00 in0.0 mm 0.00 in0.0 mm
11:42 AM 17.1°F-8.3°C 7.7°F-13.5°C 66% 8.1 mph NW13.0 kmh NW 10.1 mph16.3 kmh 30.26 in1024.7 mb - 0.00 in0.0 mm 0.00 in0.0 mm
11:37 AM 17.1°F-8.3°C 7.0°F-13.9°C 64% 10.1 mph N16.3 kmh N 12.1 mph19.5 kmh 30.26 in1024.7 mb - 0.00 in0.0 mm 0.00 in0.0 mm
11:32 AM 17.1°F-8.3°C 7.7°F-13.5°C 66% 8.9 mph NW14.3 kmh NW 8.1 mph13.0 kmh 30.26 in1024.7 mb - 0.00 in0.0 mm 0.00 in0.0 mm
11:27 AM 16.9°F-8.4°C 7.5°F-13.6°C 66% 8.9 mph NW14.3 kmh NW 8.9 mph14.3 kmh 30.26 in1024.7 mb - 0.00 in0.0 mm 0.00 in0.0 mm
11:22 AM 16.7°F-8.5°C 7.0°F-13.9°C 65% 8.9 mph NW14.3 kmh NW 8.9 mph14.3 kmh 30.25 in1024.4 mb - 0.00 in0.0 mm 0.00 in0.0 mm
11:17 AM 16.7°F-8.5°C 7.3°F-13.7°C 66% 8.9 mph WNW14.3 kmh WNW 14.1 mph22.7 kmh 30.26 in1024.7 mb - 0.00 in0.0 mm 0.00 in0.0 mm
11:12 AM 16.9°F-8.4°C 7.5°F-13.6°C 66% 8.9 mph NNW14.3 kmh NNW 8.9 mph14.3 kmh 30.26 in1024.7 mb - 0.00 in0.0 mm 0.00 in0.0 mm
11:07 AM 16.5°F-8.6°C 7.5°F-13.6°C 67% 8.1 mph NW13.0 kmh NW 8.9 mph14.3 kmh 30.26 in1024.7 mb - 0.00 in0.0 mm 0.00 in0.0 mm
11:02 AM 16.5°F-8.6°C 7.9°F-13.4°C 68% 8.1 mph NW13.0 kmh NW 2.9 mph4.7 kmh 30.26 in1024.7 mb - 0.00 in0.0 mm 0.00 in0.0 mm
10:57 AM 16.3°F-8.7°C 7.7°F-13.5°C 68% 8.1 mph NW13.0 kmh NW 4.9 mph7.9 kmh 30.26 in1024.7 mb - 0.00 in0.0 mm 0.00 in0.0 mm
10:52 AM 16.3°F-8.7°C 7.9°F-13.4°C 69% 8.1 mph W13.0 kmh W 8.1 mph13.0 kmh 30.26 in1024.7 mb - 0.00 in0.0 mm 0.00 in0.0 mm
10:47 AM 16.2°F-8.8°C 7.7°F-13.5°C 69% 8.1 mph NW13.0 kmh NW 4.9 mph7.9 kmh 30.26 in1024.7 mb - 0.00 in0.0 mm 0.00 in0.0 mm
10:42 AM 16.0°F-8.9°C 7.9°F-13.4°C 70% 6.9 mph NW11.1 kmh NW 6.9 mph11.1 kmh 30.26 in1024.7 mb - 0.00 in0.0 mm 0.00 in0.0 mm
10:37 AM 15.6°F-9.1°C 7.3°F-13.7°C 69% 8.1 mph NW13.0 kmh NW 4.0 mph6.4 kmh 30.26 in1024.7 mb - 0.00 in0.0 mm 0.00 in0.0 mm
10:32 AM 15.6°F-9.1°C 7.5°F-13.6°C 70% 8.1 mph WNW13.0 kmh WNW 2.9 mph4.7 kmh 30.26 in1024.7 mb - 0.00 in0.0 mm 0.00 in0.0 mm
10:27 AM 15.6°F-9.1°C 7.5°F-13.6°C 70% 8.1 mph WNW13.0 kmh WNW 8.1 mph13.0 kmh 30.26 in1024.7 mb - 0.00 in0.0 mm 0.00 in0.0 mm
10:22 AM 15.4°F-9.2°C 7.3°F-13.7°C 70% 8.1 mph W13.0 kmh W 8.1 mph13.0 kmh 30.27 in1025.1 mb - 0.00 in0.0 mm 0.00 in0.0 mm
10:17 AM 15.4°F-9.2°C 7.3°F-13.7°C 70% 8.1 mph WNW13.0 kmh WNW 2.9 mph4.7 kmh 30.27 in1025.1 mb - 0.00 in0.0 mm 0.00 in0.0 mm
10:12 AM 15.4°F-9.2°C 7.7°F-13.5°C 71% 6.0 mph WSW9.7 kmh WSW 11.0 mph17.7 kmh 30.27 in1025.1 mb - 0.00 in0.0 mm 0.00 in0.0 mm
10:07 AM 15.4°F-9.2°C 7.7°F-13.5°C 71% 6.0 mph W9.7 kmh W 11.0 mph17.7 kmh 30.27 in1025.1 mb - 0.00 in0.0 mm 0.00 in0.0 mm
10:02 AM 15.3°F-9.3°C 7.2°F-13.8°C 70% 6.0 mph WNW9.7 kmh WNW 8.1 mph13.0 kmh 30.27 in1025.1 mb - 0.00 in0.0 mm 0.00 in0.0 mm
09:57 AM 15.1°F-9.4°C 7.0°F-13.9°C 70% 8.1 mph NW13.0 kmh NW 4.9 mph7.9 kmh 30.27 in1025.1 mb - 0.00 in0.0 mm 0.00 in0.0 mm
09:52 AM 15.1°F-9.4°C 6.8°F-14.0°C 69% 8.1 mph NW13.0 kmh NW 8.1 mph13.0 kmh 30.27 in1025.1 mb - 0.00 in0.0 mm 0.00 in0.0 mm
09:47 AM 14.9°F-9.5°C 6.6°F-14.1°C 69% 8.1 mph NW13.0 kmh NW 4.9 mph7.9 kmh 30.27 in1025.1 mb - 0.00 in0.0 mm 0.00 in0.0 mm
09:42 AM 14.7°F-9.6°C 7.0°F-13.9°C 71% 6.9 mph NNW11.1 kmh NNW 8.9 mph14.3 kmh 30.27 in1025.1 mb - 0.00 in0.0 mm 0.00 in0.0 mm
09:37 AM 14.7°F-9.6°C 7.3°F-13.7°C 72% 6.0 mph NW9.7 kmh NW 4.9 mph7.9 kmh 30.26 in1024.7 mb - 0.00 in0.0 mm 0.00 in0.0 mm
09:32 AM 14.5°F-9.7°C 7.2°F-13.8°C 72% 6.9 mph W11.1 kmh W 6.9 mph11.1 kmh 30.26 in1024.7 mb - 0.00 in0.0 mm 0.00 in0.0 mm
09:27 AM 14.4°F-9.8°C 7.0°F-13.9°C 72% 8.1 mph NW13.0 kmh NW 6.9 mph11.1 kmh 30.26 in1024.7 mb - 0.00 in0.0 mm 0.00 in0.0 mm
09:22 AM 14.2°F-9.9°C 6.8°F-14.0°C 72% 8.1 mph NW13.0 kmh NW 11.0 mph17.7 kmh 30.26 in1024.7 mb - 0.00 in0.0 mm 0.00 in0.0 mm
09:17 AM 13.8°F-10.1°C 7.2°F-13.8°C 74% 6.9 mph WNW11.1 kmh WNW 6.9 mph11.1 kmh 30.26 in1024.7 mb - 0.00 in0.0 mm 0.00 in0.0 mm
09:12 AM 13.6°F-10.2°C 7.0°F-13.9°C 74% 6.0 mph NW9.7 kmh NW 4.9 mph7.9 kmh 30.26 in1024.7 mb - 0.00 in0.0 mm 0.00 in0.0 mm
09:07 AM 13.5°F-10.3°C 7.0°F-13.9°C 75% 4.9 mph NW7.9 kmh NW 4.9 mph7.9 kmh 30.25 in1024.4 mb - 0.00 in0.0 mm 0.00 in0.0 mm
09:02 AM 12.9°F-10.6°C 6.4°F-14.2°C 75% 4.0 mph W6.4 kmh W 8.1 mph13.0 kmh 30.26 in1024.7 mb - 0.00 in0.0 mm 0.00 in0.0 mm
08:57 AM 12.6°F-10.8°C 6.1°F-14.4°C 75% 4.0 mph WNW6.4 kmh WNW 4.9 mph7.9 kmh 30.26 in1024.7 mb - 0.00 in0.0 mm 0.00 in0.0 mm
08:52 AM 12.4°F-10.9°C 6.3°F-14.3°C 76% 4.9 mph WNW7.9 kmh WNW 4.0 mph6.4 kmh 30.25 in1024.4 mb - 0.00 in0.0 mm 0.00 in0.0 mm
08:47 AM 12.0°F-11.1°C 5.9°F-14.5°C 76% 4.9 mph WNW7.9 kmh WNW 2.9 mph4.7 kmh 30.25 in1024.4 mb - 0.00 in0.0 mm 0.00 in0.0 mm
08:42 AM 11.8°F-11.2°C 5.7°F-14.6°C 76% 4.9 mph WNW7.9 kmh WNW 6.0 mph9.7 kmh 30.25 in1024.4 mb - 0.00 in0.0 mm 0.00 in0.0 mm
08:37 AM 11.7°F-11.3°C 5.5°F-14.7°C 76% 4.9 mph W7.9 kmh W 2.9 mph4.7 kmh 30.25 in1024.4 mb - 0.00 in0.0 mm 0.00 in0.0 mm
08:32 AM 11.1°F-11.6°C 5.0°F-15.0°C 76% 6.0 mph WNW9.7 kmh WNW 4.9 mph7.9 kmh 30.25 in1024.4 mb - 0.00 in0.0 mm 0.00 in0.0 mm
08:27 AM 10.9°F-11.7°C 5.2°F-14.9°C 77% 6.0 mph W9.7 kmh W 6.0 mph9.7 kmh 30.25 in1024.4 mb - 0.00 in0.0 mm 0.00 in0.0 mm
08:22 AM 10.8°F-11.8°C 5.0°F-15.0°C 77% 6.0 mph NW9.7 kmh NW 8.1 mph13.0 kmh 30.25 in1024.4 mb - 0.00 in0.0 mm 0.00 in0.0 mm
08:17 AM 10.6°F-11.9°C 4.8°F-15.1°C 77% 4.9 mph W7.9 kmh W 6.9 mph11.1 kmh 30.25 in1024.4 mb - 0.00 in0.0 mm 0.00 in0.0 mm
08:12 AM 10.4°F-12.0°C 4.8°F-15.1°C 78% 4.0 mph W6.4 kmh W 4.0 mph6.4 kmh 30.25 in1024.4 mb - 0.00 in0.0 mm 0.00 in0.0 mm
08:07 AM 10.0°F-12.2°C 4.6°F-15.2°C 78% 2.9 mph W4.7 kmh W 6.0 mph9.7 kmh 30.25 in1024.4 mb - 0.00 in0.0 mm 0.00 in0.0 mm
08:02 AM 10.0°F-12.2°C 4.6°F-15.2°C 78% 2.9 mph W4.7 kmh W 0.9 mph1.4 kmh 30.25 in1024.4 mb - 0.00 in0.0 mm 0.00 in0.0 mm
07:57 AM 10.0°F-12.2°C 4.6°F-15.2°C 78% 2.9 mph WNW4.7 kmh WNW 4.0 mph6.4 kmh 30.25 in1024.4 mb - 0.00 in0.0 mm 0.00 in0.0 mm
07:47 AM 9.9°F-12.3°C 4.5°F-15.3°C 78% 4.0 mph WSW6.4 kmh WSW 2.0 mph3.2 kmh 30.25 in1024.4 mb - 0.00 in0.0 mm 0.00 in0.0 mm
07:42 AM 9.9°F-12.3°C 4.6°F-15.2°C 79% 4.9 mph W7.9 kmh W 2.0 mph3.2 kmh 30.25 in1024.4 mb - 0.00 in0.0 mm 0.00 in0.0 mm
07:37 AM 9.7°F-12.4°C 4.5°F-15.3°C 79% 4.9 mph W7.9 kmh W 4.0 mph6.4 kmh 30.24 in1024.0 mb - 0.00 in0.0 mm 0.00 in0.0 mm
07:32 AM 9.5°F-12.5°C 4.3°F-15.4°C 79% 4.0 mph W6.4 kmh W 2.9 mph4.7 kmh 30.24 in1024.0 mb - 0.00 in0.0 mm 0.00 in0.0 mm
07:27 AM 9.3°F-12.6°C 4.1°F-15.5°C 79% 2.9 mph W4.7 kmh W 6.0 mph9.7 kmh 30.24 in1024.0 mb - 0.00 in0.0 mm 0.00 in0.0 mm
07:22 AM 9.3°F-12.6°C 4.1°F-15.5°C 79% 2.9 mph W4.7 kmh W 4.0 mph6.4 kmh 30.24 in1024.0 mb - 0.00 in0.0 mm 0.00 in0.0 mm
07:17 AM 9.3°F-12.6°C 4.1°F-15.5°C 79% 2.9 mph W4.7 kmh W 2.9 mph4.7 kmh 30.24 in1024.0 mb - 0.00 in0.0 mm 0.00 in0.0 mm
07:12 AM 9.5°F-12.5°C 4.3°F-15.4°C 79% 2.9 mph WSW4.7 kmh WSW 2.9 mph4.7 kmh 30.24 in1024.0 mb - 0.00 in0.0 mm 0.00 in0.0 mm
07:07 AM 9.7°F-12.4°C 4.5°F-15.3°C 79% 2.0 mph W3.2 kmh W 2.9 mph4.7 kmh 30.24 in1024.0 mb - 0.00 in0.0 mm 0.00 in0.0 mm
07:02 AM 9.7°F-12.4°C 4.5°F-15.3°C 79% 2.9 mph W4.7 kmh W 0.9 mph1.4 kmh 30.24 in1024.0 mb - 0.00 in0.0 mm 0.00 in0.0 mm
06:57 AM 9.9°F-12.3°C 4.6°F-15.2°C 79% 2.9 mph W4.7 kmh W 6.0 mph9.7 kmh 30.24 in1024.0 mb - 0.00 in0.0 mm 0.00 in0.0 mm
06:52 AM 9.9°F-12.3°C 4.5°F-15.3°C 78% 4.0 mph W6.4 kmh W 2.9 mph4.7 kmh 30.23 in1023.7 mb - 0.00 in0.0 mm 0.00 in0.0 mm
06:47 AM 9.9°F-12.3°C 4.5°F-15.3°C 78% 4.9 mph WNW7.9 kmh WNW 6.9 mph11.1 kmh 30.23 in1023.7 mb - 0.00 in0.0 mm 0.00 in0.0 mm
06:42 AM 9.9°F-12.3°C 4.5°F-15.3°C 78% 4.9 mph WNW7.9 kmh WNW 6.0 mph9.7 kmh 30.23 in1023.7 mb - 0.00 in0.0 mm 0.00 in0.0 mm
06:37 AM 9.9°F-12.3°C 4.5°F-15.3°C 78% 4.0 mph W6.4 kmh W 2.9 mph4.7 kmh 30.23 in1023.7 mb - 0.00 in0.0 mm 0.00 in0.0 mm
06:32 AM 9.9°F-12.3°C 4.5°F-15.3°C 78% 4.0 mph WNW6.4 kmh WNW 6.0 mph9.7 kmh 30.23 in1023.7 mb - 0.00 in0.0 mm 0.00 in0.0 mm
06:27 AM 9.9°F-12.3°C 4.5°F-15.3°C 78% 4.0 mph W6.4 kmh W 6.0 mph9.7 kmh 30.23 in1023.7 mb - 0.00 in0.0 mm 0.00 in0.0 mm
06:22 AM 9.9°F-12.3°C 4.5°F-15.3°C 78% 4.0 mph WNW6.4 kmh WNW 6.9 mph11.1 kmh 30.23 in1023.7 mb - 0.00 in0.0 mm 0.00 in0.0 mm
06:17 AM 9.9°F-12.3°C 4.1°F-15.5°C 77% 2.9 mph W4.7 kmh W 4.0 mph6.4 kmh 30.23 in1023.7 mb - 0.00 in0.0 mm 0.00 in0.0 mm
06:12 AM 10.0°F-12.2°C 4.3°F-15.4°C 77% 2.9 mph W4.7 kmh W 0.9 mph1.4 kmh 30.22 in1023.4 mb - 0.00 in0.0 mm 0.00 in0.0 mm
06:07 AM 10.2°F-12.1°C 4.1°F-15.5°C 76% 4.0 mph WNW6.4 kmh WNW 4.0 mph6.4 kmh 30.22 in1023.4 mb - 0.00 in0.0 mm 0.00 in0.0 mm
06:02 AM 10.2°F-12.1°C 4.1°F-15.5°C 76% 4.9 mph WNW7.9 kmh WNW 6.0 mph9.7 kmh 30.22 in1023.4 mb - 0.00 in0.0 mm 0.00 in0.0 mm
05:57 AM 10.4°F-12.0°C 4.3°F-15.4°C 76% 4.9 mph W7.9 kmh W 6.0 mph9.7 kmh 30.22 in1023.4 mb - 0.00 in0.0 mm 0.00 in0.0 mm
05:52 AM 10.6°F-11.9°C 4.3°F-15.4°C 75% 4.9 mph WNW7.9 kmh WNW 4.9 mph7.9 kmh 30.22 in1023.4 mb - 0.00 in0.0 mm 0.00 in0.0 mm
05:47 AM 10.8°F-11.8°C 4.5°F-15.3°C 75% 6.0 mph WNW9.7 kmh WNW 6.9 mph11.1 kmh 30.22 in1023.4 mb - 0.00 in0.0 mm 0.00 in0.0 mm
05:42 AM 10.8°F-11.8°C 4.6°F-15.2°C 76% 6.0 mph W9.7 kmh W 6.0 mph9.7 kmh 30.22 in1023.4 mb - 0.00 in0.0 mm 0.00 in0.0 mm
05:37 AM 10.4°F-12.0°C 4.3°F-15.4°C 76% 4.0 mph WNW6.4 kmh WNW 8.9 mph14.3 kmh 30.22 in1023.4 mb - 0.00 in0.0 mm 0.00 in0.0 mm
05:32 AM 10.0°F-12.2°C 4.3°F-15.4°C 77% 4.0 mph WNW6.4 kmh WNW 2.0 mph3.2 kmh 30.22 in1023.4 mb - 0.00 in0.0 mm 0.00 in0.0 mm
05:27 AM 9.7°F-12.4°C 4.3°F-15.4°C 78% 4.9 mph W7.9 kmh W 4.0 mph6.4 kmh 30.22 in1023.4 mb - 0.00 in0.0 mm 0.00 in0.0 mm
05:22 AM 9.3°F-12.6°C 4.1°F-15.5°C 79% 2.9 mph WNW4.7 kmh WNW 2.0 mph3.2 kmh 30.22 in1023.4 mb - 0.00 in0.0 mm 0.00 in0.0 mm
05:17 AM 9.1°F-12.7°C 3.9°F-15.6°C 79% 2.0 mph WNW3.2 kmh WNW 4.0 mph6.4 kmh 30.22 in1023.4 mb - 0.00 in0.0 mm 0.00 in0.0 mm
05:12 AM 9.0°F-12.8°C 3.7°F-15.7°C 79% 2.0 mph WSW3.2 kmh WSW 2.0 mph3.2 kmh 30.22 in1023.4 mb - 0.00 in0.0 mm 0.00 in0.0 mm
05:07 AM 9.0°F-12.8°C 3.7°F-15.7°C 79% 2.0 mph WSW3.2 kmh WSW 2.0 mph3.2 kmh 30.22 in1023.4 mb - 0.00 in0.0 mm 0.00 in0.0 mm
05:02 AM 9.0°F-12.8°C 3.7°F-15.7°C 79% 2.0 mph WSW3.2 kmh WSW 2.0 mph3.2 kmh 30.21 in1023.0 mb - 0.00 in0.0 mm 0.00 in0.0 mm
04:57 AM 9.0°F-12.8°C 3.6°F-15.8°C 78% 2.0 mph WSW3.2 kmh WSW 2.0 mph3.2 kmh 30.21 in1023.0 mb - 0.00 in0.0 mm 0.00 in0.0 mm
04:52 AM 9.0°F-12.8°C 3.7°F-15.7°C 79% 2.0 mph WSW3.2 kmh WSW 0.9 mph1.4 kmh 30.21 in1023.0 mb - 0.00 in0.0 mm 0.00 in0.0 mm
04:47 AM 9.1°F-12.7°C 3.9°F-15.6°C 79% 2.9 mph W4.7 kmh W 0.9 mph1.4 kmh 30.21 in1023.0 mb - 0.00 in0.0 mm 0.00 in0.0 mm
04:42 AM 9.0°F-12.8°C 4.1°F-15.5°C 80% 2.9 mph WSW4.7 kmh WSW 4.0 mph6.4 kmh 30.21 in1023.0 mb - 0.00 in0.0 mm 0.00 in0.0 mm
04:37 AM 9.0°F-12.8°C 3.7°F-15.7°C 79% 2.9 mph WSW4.7 kmh WSW 4.0 mph6.4 kmh 30.21 in1023.0 mb - 0.00 in0.0 mm 0.00 in0.0 mm
04:32 AM 9.0°F-12.8°C 3.7°F-15.7°C 79% 2.9 mph WSW4.7 kmh WSW 6.9 mph11.1 kmh 30.21 in1023.0 mb - 0.00 in0.0 mm 0.00 in0.0 mm
04:27 AM 9.0°F-12.8°C 3.6°F-15.8°C 78% 2.9 mph WSW4.7 kmh WSW 2.9 mph4.7 kmh 30.21 in1023.0 mb - 0.00 in0.0 mm 0.00 in0.0 mm
04:22 AM 9.1°F-12.7°C 3.7°F-15.7°C 78% 2.9 mph WSW4.7 kmh WSW 2.9 mph4.7 kmh 30.21 in1023.0 mb - 0.00 in0.0 mm 0.00 in0.0 mm
04:17 AM 9.3°F-12.6°C 3.6°F-15.8°C 77% 4.0 mph WSW6.4 kmh WSW 0.9 mph1.4 kmh 30.21 in1023.0 mb - 0.00 in0.0 mm 0.00 in0.0 mm
04:12 AM 9.3°F-12.6°C 3.4°F-15.9°C 76% 4.0 mph WSW6.4 kmh WSW 4.0 mph6.4 kmh 30.21 in1023.0 mb - 0.00 in0.0 mm 0.00 in0.0 mm
04:07 AM 9.7°F-12.4°C 3.4°F-15.9°C 75% 2.9 mph WSW4.7 kmh WSW 2.9 mph4.7 kmh 30.21 in1023.0 mb - 0.00 in0.0 mm 0.00 in0.0 mm
04:02 AM 9.9°F-12.3°C 3.6°F-15.8°C 75% 4.0 mph W6.4 kmh W 4.0 mph6.4 kmh 30.21 in1023.0 mb - 0.00 in0.0 mm 0.00 in0.0 mm
03:57 AM 9.9°F-12.3°C 3.2°F-16.0°C 74% 2.9 mph WSW4.7 kmh WSW 4.0 mph6.4 kmh 30.21 in1023.0 mb - 0.00 in0.0 mm 0.00 in0.0 mm
03:52 AM 10.0°F-12.2°C 3.4°F-15.9°C 74% 0.9 mph WSW1.4 kmh WSW 2.9 mph4.7 kmh 30.21 in1023.0 mb - 0.00 in0.0 mm 0.00 in0.0 mm
03:47 AM 10.0°F-12.2°C 3.2°F-16.0°C 73% 2.0 mph WSW3.2 kmh WSW 2.9 mph4.7 kmh 30.21 in1023.0 mb - 0.00 in0.0 mm 0.00 in0.0 mm
03:42 AM 10.2°F-12.1°C 3.4°F-15.9°C 73% 2.9 mph W4.7 kmh W -- 30.20 in1022.7 mb - 0.00 in0.0 mm 0.00 in0.0 mm
03:37 AM 10.4°F-12.0°C 3.4°F-15.9°C 73% 2.9 mph W4.7 kmh W 2.0 mph3.2 kmh 30.20 in1022.7 mb - 0.00 in0.0 mm 0.00 in0.0 mm
03:32 AM 10.6°F-11.9°C 3.4°F-15.9°C 72% 4.0 mph W6.4 kmh W 4.0 mph6.4 kmh 30.20 in1022.7 mb - 0.00 in0.0 mm 0.00 in0.0 mm
03:27 AM 10.8°F-11.8°C 3.6°F-15.8°C 72% 4.9 mph W7.9 kmh W 0.9 mph1.4 kmh 30.20 in1022.7 mb - 0.00 in0.0 mm 0.00 in0.0 mm
03:22 AM 10.8°F-11.8°C 3.6°F-15.8°C 72% 4.9 mph WNW7.9 kmh WNW 4.9 mph7.9 kmh 30.20 in1022.7 mb - 0.00 in0.0 mm 0.00 in0.0 mm
03:17 AM 10.8°F-11.8°C 3.6°F-15.8°C 72% 4.9 mph NW7.9 kmh NW 6.0 mph9.7 kmh 30.19 in1022.4 mb - 0.00 in0.0 mm 0.00 in0.0 mm
03:12 AM 10.9°F-11.7°C 3.4°F-15.9°C 71% 4.9 mph WNW7.9 kmh WNW 2.9 mph4.7 kmh 30.19 in1022.4 mb - 0.00 in0.0 mm 0.00 in0.0 mm
03:07 AM 10.9°F-11.7°C 3.4°F-15.9°C 71% 4.9 mph WNW7.9 kmh WNW 4.0 mph6.4 kmh 30.19 in1022.4 mb - 0.00 in0.0 mm 0.00 in0.0 mm
03:02 AM 10.9°F-11.7°C 3.4°F-15.9°C 71% 4.9 mph W7.9 kmh W 2.9 mph4.7 kmh 30.19 in1022.4 mb - 0.00 in0.0 mm 0.00 in0.0 mm
02:57 AM 11.1°F-11.6°C 3.6°F-15.8°C 71% 4.9 mph NW7.9 kmh NW 2.9 mph4.7 kmh 30.19 in1022.4 mb - 0.00 in0.0 mm 0.00 in0.0 mm
02:52 AM 11.3°F-11.5°C 3.7°F-15.7°C 71% 6.0 mph WNW9.7 kmh WNW 6.9 mph11.1 kmh 30.19 in1022.4 mb - 0.00 in0.0 mm 0.00 in0.0 mm
02:47 AM 11.5°F-11.4°C 3.6°F-15.8°C 70% 6.9 mph NW11.1 kmh NW 4.9 mph7.9 kmh 30.19 in1022.4 mb - 0.00 in0.0 mm 0.00 in0.0 mm
02:42 AM 11.3°F-11.5°C 3.4°F-15.9°C 70% 6.9 mph NW11.1 kmh NW 6.9 mph11.1 kmh 30.19 in1022.4 mb - 0.00 in0.0 mm 0.00 in0.0 mm
02:37 AM 11.3°F-11.5°C 3.7°F-15.7°C 71% 6.9 mph NW11.1 kmh NW 13.0 mph20.9 kmh 30.18 in1022.0 mb - 0.00 in0.0 mm 0.00 in0.0 mm
02:32 AM 11.3°F-11.5°C 3.7°F-15.7°C 71% 6.0 mph NW9.7 kmh NW 8.9 mph14.3 kmh 30.18 in1022.0 mb - 0.00 in0.0 mm 0.00 in0.0 mm
02:27 AM 11.5°F-11.4°C 3.9°F-15.6°C 71% 4.9 mph NNW7.9 kmh NNW 4.0 mph6.4 kmh 30.18 in1022.0 mb - 0.00 in0.0 mm 0.00 in0.0 mm
02:22 AM 11.5°F-11.4°C 3.9°F-15.6°C 71% 6.0 mph NW9.7 kmh NW 4.9 mph7.9 kmh 30.18 in1022.0 mb - 0.00 in0.0 mm 0.00 in0.0 mm
02:17 AM 11.5°F-11.4°C 3.6°F-15.8°C 70% 6.9 mph NW11.1 kmh NW 4.0 mph6.4 kmh 30.18 in1022.0 mb - 0.00 in0.0 mm 0.00 in0.0 mm
02:12 AM 11.5°F-11.4°C 3.6°F-15.8°C 70% 8.1 mph NW13.0 kmh NW 4.0 mph6.4 kmh 30.18 in1022.0 mb - 0.00 in0.0 mm 0.00 in0.0 mm
02:07 AM 11.5°F-11.4°C 3.6°F-15.8°C 70% 8.1 mph NW13.0 kmh NW 8.1 mph13.0 kmh 30.17 in1021.7 mb - 0.00 in0.0 mm 0.00 in0.0 mm
02:02 AM 11.5°F-11.4°C 3.6°F-15.8°C 70% 8.1 mph NW13.0 kmh NW 8.9 mph14.3 kmh 30.18 in1022.0 mb - 0.00 in0.0 mm 0.00 in0.0 mm
01:57 AM 11.5°F-11.4°C 3.9°F-15.6°C 71% 6.9 mph NW11.1 kmh NW 8.1 mph13.0 kmh 30.17 in1021.7 mb - 0.00 in0.0 mm 0.00 in0.0 mm
01:52 AM 11.5°F-11.4°C 3.9°F-15.6°C 71% 8.1 mph WNW13.0 kmh WNW 6.9 mph11.1 kmh 30.17 in1021.7 mb - 0.00 in0.0 mm 0.00 in0.0 mm
01:47 AM 11.7°F-11.3°C 3.7°F-15.7°C 70% 8.1 mph NW13.0 kmh NW 8.9 mph14.3 kmh 30.17 in1021.7 mb - 0.00 in0.0 mm 0.00 in0.0 mm
01:42 AM 11.7°F-11.3°C 3.7°F-15.7°C 70% 8.1 mph NW13.0 kmh NW 6.9 mph11.1 kmh 30.17 in1021.7 mb - 0.00 in0.0 mm 0.00 in0.0 mm
01:37 AM 11.7°F-11.3°C 3.7°F-15.7°C 70% 8.9 mph WNW14.3 kmh WNW 6.9 mph11.1 kmh 30.17 in1021.7 mb - 0.00 in0.0 mm 0.00 in0.0 mm
01:32 AM 11.8°F-11.2°C 3.9°F-15.6°C 70% 6.9 mph NW11.1 kmh NW 8.9 mph14.3 kmh 30.17 in1021.7 mb - 0.00 in0.0 mm 0.00 in0.0 mm
01:27 AM 12.0°F-11.1°C 4.5°F-15.3°C 71% 8.1 mph NW13.0 kmh NW 8.9 mph14.3 kmh 30.16 in1021.3 mb - 0.00 in0.0 mm 0.00 in0.0 mm
01:22 AM 12.0°F-11.1°C 4.1°F-15.5°C 70% 8.9 mph WNW14.3 kmh WNW 8.1 mph13.0 kmh 30.16 in1021.3 mb - 0.00 in0.0 mm 0.00 in0.0 mm
01:17 AM 12.2°F-11.0°C 4.6°F-15.2°C 71% 8.1 mph NNW13.0 kmh NNW 8.9 mph14.3 kmh 30.16 in1021.3 mb - 0.00 in0.0 mm 0.00 in0.0 mm
01:12 AM 12.2°F-11.0°C 4.8°F-15.1°C 72% 6.0 mph NW9.7 kmh NW 11.0 mph17.7 kmh 30.15 in1021.0 mb - 0.00 in0.0 mm 0.00 in0.0 mm
01:07 AM 12.4°F-10.9°C 5.0°F-15.0°C 72% 4.9 mph NNW7.9 kmh NNW 8.9 mph14.3 kmh 30.16 in1021.3 mb - 0.00 in0.0 mm 0.00 in0.0 mm
01:02 AM 12.4°F-10.9°C 4.8°F-15.1°C 71% 6.9 mph WNW11.1 kmh WNW 4.0 mph6.4 kmh 30.15 in1021.0 mb - 0.00 in0.0 mm 0.00 in0.0 mm
12:57 AM 12.4°F-10.9°C 4.8°F-15.1°C 71% 8.1 mph NW13.0 kmh NW 13.0 mph20.9 kmh 30.15 in1021.0 mb - 0.00 in0.0 mm 0.00 in0.0 mm
12:52 AM 12.4°F-10.9°C 4.8°F-15.1°C 71% 8.9 mph NW14.3 kmh NW 10.1 mph16.3 kmh 30.15 in1021.0 mb - 0.00 in0.0 mm 0.00 in0.0 mm
12:47 AM 12.4°F-10.9°C 4.8°F-15.1°C 71% 8.9 mph NW14.3 kmh NW 11.0 mph17.7 kmh 30.15 in1021.0 mb - 0.00 in0.0 mm 0.00 in0.0 mm
12:42 AM 12.0°F-11.1°C 4.8°F-15.1°C 72% 6.9 mph W11.1 kmh W 8.1 mph13.0 kmh 30.14 in1020.7 mb - 0.00 in0.0 mm 0.00 in0.0 mm
12:37 AM 11.8°F-11.2°C 4.6°F-15.2°C 72% 6.0 mph NW9.7 kmh NW 4.9 mph7.9 kmh 30.14 in1020.7 mb - 0.00 in0.0 mm 0.00 in0.0 mm
12:32 AM 12.0°F-11.1°C 4.8°F-15.1°C 72% 6.0 mph WNW9.7 kmh WNW 6.9 mph11.1 kmh 30.14 in1020.7 mb - 0.00 in0.0 mm 0.00 in0.0 mm
12:27 AM 12.0°F-11.1°C 4.8°F-15.1°C 72% 6.9 mph NW11.1 kmh NW 2.9 mph4.7 kmh 30.14 in1020.7 mb - 0.00 in0.0 mm 0.00 in0.0 mm
12:22 AM 11.8°F-11.2°C 4.6°F-15.2°C 72% 6.9 mph NW11.1 kmh NW 2.9 mph4.7 kmh 30.14 in1020.7 mb - 0.00 in0.0 mm 0.00 in0.0 mm
12:17 AM 11.7°F-11.3°C 4.6°F-15.2°C 73% 4.9 mph NNW7.9 kmh NNW 8.1 mph13.0 kmh 30.13 in1020.3 mb - 0.00 in0.0 mm 0.00 in0.0 mm
12:12 AM 11.8°F-11.2°C 4.8°F-15.1°C 73% 4.9 mph WNW7.9 kmh WNW 6.9 mph11.1 kmh 30.13 in1020.3 mb - 0.00 in0.0 mm 0.00 in0.0 mm
12:07 AM 12.0°F-11.1°C 4.8°F-15.1°C 72% 6.0 mph NW9.7 kmh NW 2.9 mph4.7 kmh 30.13 in1020.3 mb - 0.00 in0.0 mm 0.00 in0.0 mm
12:02 AM 12.0°F-11.1°C 4.8°F-15.1°C 72% 6.9 mph WNW11.1 kmh WNW 4.0 mph6.4 kmh 30.14 in1020.7 mb - 0.00 in0.0 mm 0.00 in0.0 mm